createdAt,value
2023-02-23T00:01:11.540Z,22.55
2023-02-23T00:03:38.415Z,21.25
2023-02-23T00:06:05.146Z,21.73
2023-02-23T00:08:35.833Z,22.55
2023-02-23T00:11:06.292Z,22.63
2023-02-23T00:13:37.509Z,21.88
2023-02-23T00:16:05.066Z,21.75
2023-02-23T00:18:41.154Z,21.45
2023-02-23T00:21:07.737Z,22.05
2023-02-23T00:23:34.233Z,21.25
2023-02-23T00:26:05.287Z,21.52
2023-02-23T00:28:31.852Z,21.55
2023-02-23T00:30:59.987Z,22.52
2023-02-23T00:33:26.640Z,21.38
2023-02-23T00:35:55.553Z,21.05
2023-02-23T00:38:22.213Z,22.75
2023-02-23T00:40:48.861Z,23.10
2023-02-23T00:43:15.623Z,21.23
2023-02-23T00:45:42.233Z,21.73
2023-02-23T00:48:10.943Z,22.27
2023-02-23T00:50:39.108Z,22.65
2023-02-23T00:53:05.657Z,22.35
2023-02-23T00:55:32.277Z,23.70
2023-02-23T00:57:58.832Z,23.25
2023-02-23T01:00:28.231Z,22.48
2023-02-23T01:02:54.812Z,21.83
2023-02-23T01:05:22.229Z,22.52
2023-02-23T01:07:49.344Z,21.65
2023-02-23T01:10:22.062Z,20.75
2023-02-23T01:12:49.797Z,21.75
2023-02-23T01:15:17.010Z,20.60
2023-02-23T01:17:43.890Z,21.48
2023-02-23T01:20:19.406Z,22.92
2023-02-23T01:22:47.508Z,22.92
2023-02-23T01:25:14.665Z,21.67
2023-02-23T01:27:41.472Z,22.00
2023-02-23T01:30:09.794Z,22.13
2023-02-23T01:32:37.826Z,21.67
2023-02-23T01:35:09.698Z,21.40
2023-02-23T01:37:41.002Z,22.83
2023-02-23T01:40:30.583Z,23.05
2023-02-23T01:42:59.139Z,22.40
2023-02-23T01:45:34.871Z,22.45
2023-02-23T01:48:12.668Z,23.75
2023-02-23T01:50:43.637Z,22.33
2023-02-23T01:53:12.751Z,22.17
2023-02-23T01:55:40.791Z,22.58
2023-02-23T01:58:15.305Z,24.05
2023-02-23T02:00:45.890Z,23.20
2023-02-23T02:03:24.354Z,23.20
2023-02-23T02:05:51.466Z,23.20
2023-02-23T02:08:19.213Z,22.10
2023-02-23T02:10:47.558Z,23.15
2023-02-23T02:13:18.324Z,24.13
2023-02-23T02:16:01.038Z,23.65
2023-02-23T02:18:38.197Z,24.23
2023-02-23T02:21:25.752Z,23.77
2023-02-23T02:23:53.543Z,23.48
2023-02-23T02:26:52.327Z,23.25
2023-02-23T02:29:26.383Z,22.67
2023-02-23T02:32:11.608Z,25.23
2023-02-23T02:34:44.265Z,24.48
2023-02-23T02:37:14.040Z,24.65
2023-02-23T02:40:15.731Z,25.60
2023-02-23T02:42:51.247Z,23.25
2023-02-23T02:45:22.827Z,25.30
2023-02-23T02:48:15.430Z,25.73
2023-02-23T02:50:47.090Z,24.92
2023-02-23T02:53:17.357Z,24.60
2023-02-23T02:55:48.299Z,23.05
2023-02-23T02:58:15.113Z,23.27
2023-02-23T03:01:01.764Z,23.55
2023-02-23T03:03:51.499Z,23.90
2023-02-23T03:06:38.091Z,23.70
2023-02-23T03:09:29.838Z,24.27
2023-02-23T03:12:26.437Z,23.95
2023-02-23T03:15:19.149Z,23.15
2023-02-23T03:18:10.346Z,23.13
2023-02-23T03:21:02.627Z,24.33
2023-02-23T03:24:03.190Z,24.00
2023-02-23T03:26:51.261Z,22.25
2023-02-23T03:29:51.671Z,23.10
2023-02-23T03:32:45.046Z,25.02
2023-02-23T03:35:40.993Z,25.55
2023-02-23T03:38:30.217Z,22.50
2023-02-23T03:41:17.795Z,23.88
2023-02-23T03:44:06.806Z,26.02
2023-02-23T03:46:54.133Z,24.20
2023-02-23T03:49:40.153Z,24.95
2023-02-23T03:52:32.700Z,25.52
2023-02-23T03:55:22.756Z,24.23
2023-02-23T03:58:10.936Z,23.83
2023-02-23T04:01:01.040Z,25.92
2023-02-23T04:03:47.154Z,23.98
2023-02-23T04:06:33.280Z,24.50
2023-02-23T04:09:20.900Z,22.55
2023-02-23T04:12:17.844Z,23.05
2023-02-23T04:15:00.318Z,22.92
2023-02-23T04:17:28.869Z,22.77
2023-02-23T04:19:55.613Z,23.20
2023-02-23T04:22:23.527Z,24.20
2023-02-23T04:24:50.937Z,23.58
2023-02-23T04:27:18.122Z,23.55
2023-02-23T04:29:45.196Z,22.17
2023-02-23T04:32:15.905Z,24.27
2023-02-23T04:34:43.164Z,22.80
2023-02-23T04:37:10.100Z,22.80
2023-02-23T04:39:36.862Z,21.95
2023-02-23T04:42:03.489Z,23.42
2023-02-23T04:44:30.269Z,24.13
2023-02-23T04:46:57.659Z,24.60
2023-02-23T04:49:24.209Z,24.17
2023-02-23T04:51:50.922Z,24.08
2023-02-23T04:54:17.941Z,25.75
2023-02-23T04:56:44.423Z,23.70
2023-02-23T04:59:11.077Z,24.63
2023-02-23T05:01:37.735Z,22.70
2023-02-23T05:04:04.405Z,24.05
2023-02-23T05:06:31.292Z,23.65
2023-02-23T05:08:57.980Z,23.60
2023-02-23T05:11:25.012Z,23.08
2023-02-23T05:13:52.672Z,22.27
2023-02-23T05:16:19.356Z,23.45
2023-02-23T05:18:46.007Z,24.55
2023-02-23T05:21:12.691Z,23.73
2023-02-23T05:23:41.474Z,24.08
2023-02-23T05:26:09.406Z,23.27
2023-02-23T05:28:37.081Z,24.85
2023-02-23T05:31:04.614Z,24.48
2023-02-23T05:33:31.809Z,23.42
2023-02-23T05:35:58.958Z,23.02
2023-02-23T05:38:26.223Z,22.02
2023-02-23T05:40:53.119Z,23.40
2023-02-23T05:43:19.725Z,23.38
2023-02-23T05:45:46.265Z,23.25
2023-02-23T05:48:13.303Z,23.25
2023-02-23T05:50:40.009Z,22.15
2023-02-23T05:53:06.679Z,25.98
2023-02-23T05:55:33.163Z,23.05
2023-02-23T05:57:59.808Z,23.77
2023-02-23T06:00:26.505Z,24.13
2023-02-23T06:02:54.035Z,24.13
2023-02-23T06:05:20.811Z,24.30
2023-02-23T06:07:48.166Z,24.63
2023-02-23T06:10:15.152Z,24.92
2023-02-23T06:12:41.960Z,25.85
2023-02-23T06:15:08.674Z,25.70
2023-02-23T06:17:35.829Z,26.00
2023-02-23T06:20:04.820Z,26.27
2023-02-23T06:22:34.152Z,24.75
2023-02-23T06:25:04.779Z,25.23
2023-02-23T06:27:31.567Z,27.02
2023-02-23T06:29:59.584Z,26.30
2023-02-23T06:32:27.151Z,26.58
2023-02-23T06:34:55.352Z,25.15
2023-02-23T06:37:22.136Z,27.65
2023-02-23T06:39:49.635Z,28.98
2023-02-23T06:42:16.805Z,27.27
2023-02-23T06:44:43.358Z,27.35
2023-02-23T06:47:11.011Z,28.23
2023-02-23T06:49:37.686Z,27.55
2023-02-23T06:52:04.309Z,28.77
2023-02-23T06:54:31.140Z,27.65
2023-02-23T06:56:57.805Z,28.35
2023-02-23T06:59:24.360Z,30.23
2023-02-23T07:01:51.243Z,28.85
2023-02-23T07:04:18.024Z,29.55
2023-02-23T07:06:44.766Z,28.60
2023-02-23T07:09:11.467Z,29.50
2023-02-23T07:11:38.221Z,28.35
2023-02-23T07:14:04.810Z,27.02
2023-02-23T07:16:32.307Z,27.33
2023-02-23T07:18:58.955Z,27.83
2023-02-23T07:21:25.565Z,27.92
2023-02-23T07:23:52.216Z,26.80
2023-02-23T07:26:18.938Z,27.13
2023-02-23T07:28:45.555Z,26.60
2023-02-23T07:31:12.223Z,26.15
2023-02-23T07:33:38.892Z,25.52
2023-02-23T07:36:05.677Z,26.70
2023-02-23T07:38:32.543Z,28.90
2023-02-23T07:40:59.518Z,27.05
2023-02-23T07:43:26.161Z,26.42
2023-02-23T07:45:52.896Z,25.77
2023-02-23T07:48:19.697Z,26.40
2023-02-23T07:50:46.538Z,28.15
2023-02-23T07:53:13.539Z,27.67
2023-02-23T07:55:40.296Z,28.33
2023-02-23T07:58:07.675Z,25.88
2023-02-23T08:00:35.071Z,27.50
2023-02-23T08:03:01.760Z,27.23
2023-02-23T08:05:28.654Z,26.40
2023-02-23T08:07:56.346Z,24.33
2023-02-23T08:10:22.894Z,25.60
2023-02-23T08:12:51.573Z,28.02
2023-02-23T08:15:18.106Z,27.27
2023-02-23T08:17:44.864Z,25.60
2023-02-23T08:20:11.458Z,23.25
2023-02-23T08:22:49.011Z,24.40
2023-02-23T08:25:16.763Z,24.23
2023-02-23T08:27:43.317Z,24.15
2023-02-23T08:30:10.291Z,24.13
2023-02-23T08:32:36.904Z,22.90
2023-02-23T08:35:03.673Z,22.55
2023-02-23T08:37:30.165Z,20.67
2023-02-23T08:39:57.141Z,21.08
2023-02-23T08:42:23.683Z,21.30
2023-02-23T08:44:50.420Z,20.92
2023-02-23T08:47:23.740Z,19.77
2023-02-23T08:49:50.828Z,19.83
2023-02-23T08:52:17.815Z,19.20
2023-02-23T08:54:44.572Z,19.30
2023-02-23T08:57:12.753Z,17.77
2023-02-23T08:59:41.188Z,18.20
2023-02-23T09:02:11.752Z,17.48
2023-02-23T09:04:38.513Z,16.52
2023-02-23T09:07:05.155Z,17.80
2023-02-23T09:09:32.826Z,17.27
2023-02-23T09:12:00.096Z,17.60
2023-02-23T09:14:27.038Z,17.27
2023-02-23T09:16:53.617Z,17.15
2023-02-23T09:19:20.480Z,16.38
2023-02-23T09:21:46.974Z,16.52
2023-02-23T09:24:13.912Z,16.92
2023-02-23T09:26:40.427Z,16.80
2023-02-23T09:29:07.438Z,16.40
2023-02-23T09:31:34.297Z,16.38
2023-02-23T09:34:01.844Z,16.40
2023-02-23T09:36:28.668Z,15.88
2023-02-23T09:38:57.217Z,17.63
2023-02-23T09:41:30.335Z,17.30
2023-02-23T09:44:02.690Z,18.13
2023-02-23T09:46:41.763Z,17.02
2023-02-23T09:49:13.828Z,17.98
2023-02-23T09:51:41.632Z,17.85
2023-02-23T09:54:10.797Z,16.60
2023-02-23T09:56:38.910Z,16.45
2023-02-23T09:59:06.625Z,18.38
2023-02-23T10:01:33.730Z,17.20
2023-02-23T10:04:29.880Z,17.05
2023-02-23T10:07:02.793Z,17.23
2023-02-23T10:09:38.555Z,17.38
2023-02-23T10:12:11.262Z,17.02
2023-02-23T10:14:37.900Z,18.98
2023-02-23T10:17:04.619Z,16.80
2023-02-23T10:19:43.011Z,17.55
2023-02-23T10:22:11.610Z,15.75
2023-02-23T10:24:51.122Z,15.25
2023-02-23T10:27:18.733Z,14.43
2023-02-23T10:29:45.219Z,14.00
2023-02-23T10:32:31.948Z,12.50
2023-02-23T10:34:59.586Z,12.30
2023-02-23T10:37:26.482Z,13.13
2023-02-23T10:39:53.511Z,12.73
2023-02-23T10:42:28.951Z,11.77
2023-02-23T10:44:57.081Z,11.63
2023-02-23T10:47:28.717Z,12.38
2023-02-23T10:49:56.238Z,12.10
2023-02-23T10:52:25.070Z,11.63
2023-02-23T10:54:52.028Z,11.13
2023-02-23T10:57:21.280Z,11.00
2023-02-23T10:59:59.962Z,12.05
2023-02-23T11:02:27.557Z,10.40
2023-02-23T11:04:55.985Z,11.18
2023-02-23T11:07:25.389Z,10.15
2023-02-23T11:09:52.860Z,10.15
2023-02-23T11:12:35.026Z,9.60
2023-02-23T11:15:20.463Z,11.23
2023-02-23T11:17:54.667Z,10.75
2023-02-23T11:20:26.061Z,10.05
2023-02-23T11:22:52.747Z,9.43
2023-02-23T11:25:26.427Z,8.70
2023-02-23T11:27:53.961Z,7.55
2023-02-23T11:30:22.177Z,7.72
2023-02-23T11:32:52.994Z,7.15
2023-02-23T11:35:19.530Z,7.03
2023-02-23T11:37:46.423Z,7.93
2023-02-23T11:40:34.929Z,7.20
2023-02-23T11:43:09.157Z,6.53
2023-02-23T11:45:55.630Z,5.72
2023-02-23T11:48:25.832Z,6.20
2023-02-23T11:50:53.339Z,6.22
2023-02-23T11:53:28.637Z,5.68
2023-02-23T11:55:56.355Z,6.55
2023-02-23T11:58:28.821Z,6.18
2023-02-23T12:01:04.063Z,5.55
2023-02-23T12:03:32.030Z,6.32
2023-02-23T12:05:59.297Z,7.30
2023-02-23T12:08:42.180Z,7.30
2023-02-23T12:11:12.455Z,7.10
2023-02-23T12:13:50.823Z,8.20
2023-02-23T12:16:23.267Z,7.80
2023-02-23T12:19:00.321Z,8.57
2023-02-23T12:21:48.006Z,7.95
2023-02-23T12:24:25.644Z,8.43
2023-02-23T12:26:57.941Z,8.20
2023-02-23T12:29:31.564Z,7.90
2023-02-23T12:32:02.962Z,7.57
2023-02-23T12:34:42.847Z,7.85
2023-02-23T12:37:16.668Z,7.55
2023-02-23T12:39:44.460Z,7.40
2023-02-23T12:42:17.038Z,7.63
2023-02-23T12:44:50.240Z,7.53
2023-02-23T12:47:34.068Z,7.53
2023-02-23T12:50:07.743Z,7.00
2023-02-23T12:52:41.449Z,7.97
2023-02-23T12:55:12.581Z,8.43
2023-02-23T12:57:53.612Z,7.93
2023-02-23T13:00:35.215Z,8.10
2023-02-23T13:03:08.645Z,8.52
2023-02-23T13:05:48.511Z,8.70
2023-02-23T13:08:14.973Z,8.02
2023-02-23T13:10:50.799Z,7.80
2023-02-23T13:13:25.474Z,8.02
2023-02-23T13:16:01.644Z,8.68
2023-02-23T13:18:32.690Z,8.52
2023-02-23T13:21:03.824Z,8.95
2023-02-23T13:23:39.655Z,8.32
2023-02-23T13:26:25.020Z,8.93
2023-02-23T13:31:32.180Z,8.98
2023-02-23T13:34:00.181Z,9.18
2023-02-23T13:36:28.407Z,8.77
2023-02-23T13:39:19.129Z,7.47
2023-02-23T13:41:46.125Z,8.50
2023-02-23T13:44:22.623Z,8.50
2023-02-23T13:46:52.772Z,7.78
2023-02-23T13:49:28.701Z,7.65
2023-02-23T13:51:57.417Z,7.75
2023-02-23T13:54:26.320Z,8.15
2023-02-23T13:56:56.866Z,8.77
2023-02-23T13:59:25.984Z,8.52
2023-02-23T14:01:53.850Z,8.95
2023-02-23T14:04:25.350Z,8.48
2023-02-23T14:06:56.419Z,8.18
2023-02-23T14:09:30.223Z,9.02
2023-02-23T14:12:16.905Z,8.02
2023-02-23T14:14:45.028Z,8.18
2023-02-23T14:17:14.558Z,8.10
2023-02-23T14:19:42.314Z,8.95
2023-02-23T14:22:22.125Z,9.23
2023-02-23T14:25:08.361Z,9.15
2023-02-23T14:27:44.682Z,8.30
2023-02-23T14:30:11.201Z,8.65
2023-02-23T14:32:39.398Z,8.80
2023-02-23T14:35:06.252Z,9.43
2023-02-23T14:37:36.478Z,10.20
2023-02-23T14:40:06.227Z,9.07
2023-02-23T14:42:33.298Z,9.90
2023-02-23T14:45:04.537Z,9.60
2023-02-23T14:47:40.428Z,10.13
2023-02-23T14:50:17.409Z,9.32
2023-02-23T14:52:44.272Z,9.10
2023-02-23T14:55:10.767Z,8.82
2023-02-23T14:57:38.184Z,7.63
2023-02-23T15:00:32.715Z,7.40
2023-02-23T15:03:03.506Z,6.90
2023-02-23T15:05:31.774Z,7.00
2023-02-23T15:07:59.403Z,6.90
2023-02-23T15:10:29.308Z,4.97
2023-02-23T15:12:56.168Z,4.00
2023-02-23T15:15:24.627Z,3.83
2023-02-23T15:17:53.520Z,3.70
2023-02-23T15:20:28.929Z,3.55
2023-02-23T15:22:57.903Z,2.92
2023-02-23T15:25:26.270Z,3.13
2023-02-23T15:27:53.209Z,3.00
2023-02-23T15:30:30.639Z,2.65
2023-02-23T15:33:04.674Z,3.55
2023-02-23T15:35:35.352Z,3.25
2023-02-23T15:38:13.991Z,4.00
2023-02-23T15:40:45.188Z,3.63
2023-02-23T15:43:12.062Z,6.07
2023-02-23T15:45:40.332Z,10.07
2023-02-23T15:48:09.271Z,6.32
2023-02-23T15:50:40.578Z,3.72
2023-02-23T15:53:13.852Z,4.03
2023-02-23T15:55:42.691Z,4.07
2023-02-23T15:58:22.779Z,10.15
2023-02-23T16:00:57.150Z,17.10
2023-02-23T16:03:25.556Z,13.93
2023-02-23T16:06:03.512Z,12.65
2023-02-23T16:08:30.540Z,6.03
2023-02-23T16:11:14.432Z,4.40
2023-02-23T16:13:44.420Z,3.85
2023-02-23T16:16:19.140Z,2.58
2023-02-23T16:18:47.945Z,2.88
2023-02-23T16:21:17.233Z,2.85
2023-02-23T16:23:45.957Z,2.58
2023-02-23T16:26:24.276Z,2.30
2023-02-23T16:28:58.150Z,2.45
2023-02-23T16:31:28.226Z,2.38
2023-02-23T16:34:01.755Z,2.42
2023-02-23T16:36:36.749Z,2.17
2023-02-23T16:39:06.420Z,1.77
2023-02-23T16:41:34.376Z,2.33
2023-02-23T16:44:01.928Z,1.80
2023-02-23T16:46:31.810Z,2.05
2023-02-23T16:49:10.292Z,2.00
2023-02-23T16:51:37.528Z,1.95
2023-02-23T16:54:04.178Z,1.50
2023-02-23T16:56:31.365Z,2.28
2023-02-23T16:59:05.475Z,2.47
2023-02-23T17:01:32.455Z,2.70
2023-02-23T17:04:05.338Z,2.40
2023-02-23T17:06:32.115Z,2.30
2023-02-23T17:08:58.863Z,3.05
2023-02-23T17:11:25.823Z,2.47
2023-02-23T17:13:52.382Z,3.80
2023-02-23T17:16:20.031Z,3.45
2023-02-23T17:18:46.810Z,4.47
2023-02-23T17:21:13.709Z,10.88
2023-02-23T17:23:51.051Z,13.98
2023-02-23T17:26:19.706Z,13.10
2023-02-23T17:28:46.384Z,37.90
2023-02-23T17:31:13.719Z,42.20
2023-02-23T17:33:41.109Z,43.33
2023-02-23T17:36:09.370Z,33.38
2023-02-23T17:38:36.008Z,45.40
2023-02-23T17:41:23.124Z,12.98
2023-02-23T17:43:50.006Z,7.18
2023-02-23T17:46:16.651Z,4.65
2023-02-23T17:48:47.328Z,5.15
2023-02-23T17:51:16.361Z,3.95
2023-02-23T17:53:43.078Z,4.45
2023-02-23T17:56:10.063Z,3.60
2023-02-23T17:58:37.272Z,4.18
2023-02-23T18:01:05.853Z,4.60
2023-02-23T18:03:33.662Z,3.70
2023-02-23T18:06:10.790Z,4.13
2023-02-23T18:08:38.080Z,4.50
2023-02-23T18:11:04.698Z,3.65
2023-02-23T18:13:33.366Z,3.95
2023-02-23T18:16:03.453Z,4.50
2023-02-23T18:18:30.286Z,4.15
2023-02-23T18:20:58.797Z,4.30
2023-02-23T18:23:29.566Z,3.85
2023-02-23T18:26:03.423Z,4.80
2023-02-23T18:28:30.410Z,3.65
2023-02-23T18:30:57.373Z,4.50
2023-02-23T18:33:24.296Z,4.85
2023-02-23T18:35:50.833Z,4.78
2023-02-23T18:38:17.673Z,3.45
2023-02-23T18:40:45.120Z,4.65
2023-02-23T18:43:13.164Z,3.53
2023-02-23T18:45:39.788Z,3.88
2023-02-23T18:48:12.499Z,3.08
2023-02-23T18:50:40.137Z,4.35
2023-02-23T18:53:08.955Z,4.28
2023-02-23T18:55:36.608Z,5.53
2023-02-23T18:58:05.068Z,4.05
2023-02-23T19:00:37.019Z,5.95
2023-02-23T19:03:03.697Z,5.60
2023-02-23T19:05:30.422Z,3.88
2023-02-23T19:07:57.405Z,4.70
2023-02-23T19:10:24.152Z,3.85
2023-02-23T19:12:50.760Z,2.95
2023-02-23T19:15:17.351Z,3.20
2023-02-23T19:17:46.361Z,4.57
2023-02-23T19:20:13.987Z,4.07
2023-02-23T19:22:41.229Z,3.30
2023-02-23T19:25:11.665Z,3.20
2023-02-23T19:27:38.941Z,2.58
2023-02-23T19:30:09.618Z,3.35
2023-02-23T19:32:36.845Z,3.03
2023-02-23T19:35:03.615Z,2.50
2023-02-23T19:37:30.203Z,2.60
2023-02-23T19:39:57.001Z,2.67
2023-02-23T19:42:23.557Z,3.25
2023-02-23T19:44:50.072Z,3.25
2023-02-23T19:47:16.879Z,2.75
2023-02-23T19:49:43.390Z,2.50
2023-02-23T19:52:09.929Z,2.13
2023-02-23T19:54:38.000Z,2.45
2023-02-23T19:57:04.660Z,2.53
2023-02-23T19:59:31.126Z,2.80
2023-02-23T20:01:57.795Z,2.92
2023-02-23T20:04:24.351Z,2.65
2023-02-23T20:06:50.940Z,2.58
2023-02-23T20:09:17.540Z,2.20
2023-02-23T20:11:44.257Z,2.50
2023-02-23T20:14:12.450Z,2.17
2023-02-23T20:16:39.139Z,2.40
2023-02-23T20:19:07.576Z,2.88
2023-02-23T20:21:34.675Z,2.55
2023-02-23T20:24:01.718Z,2.15
2023-02-23T20:26:30.524Z,2.95
2023-02-23T20:28:57.865Z,1.83
2023-02-23T20:31:29.352Z,2.28
2023-02-23T20:33:56.899Z,2.40
2023-02-23T20:36:24.223Z,2.55
2023-02-23T20:38:51.533Z,2.08
2023-02-23T20:41:18.246Z,2.35
2023-02-23T20:43:45.321Z,2.08
2023-02-23T20:46:13.583Z,2.33
2023-02-23T20:48:40.236Z,2.38
2023-02-23T20:51:08.605Z,2.95
2023-02-23T20:53:35.431Z,2.85
2023-02-23T20:56:04.405Z,1.95
2023-02-23T20:58:31.396Z,1.80
2023-02-23T21:00:58.184Z,2.30
2023-02-23T21:03:25.422Z,1.58
2023-02-23T21:05:52.627Z,2.72
2023-02-23T21:08:19.967Z,2.88
2023-02-23T21:10:48.314Z,2.40
2023-02-23T21:13:16.044Z,1.85
2023-02-23T21:15:43.162Z,2.08
2023-02-23T21:18:09.930Z,2.50
2023-02-23T21:20:39.621Z,2.45
2023-02-23T21:23:06.536Z,2.20
2023-02-23T21:25:33.124Z,2.25
2023-02-23T21:28:02.463Z,2.17
2023-02-23T21:30:30.381Z,2.88
2023-02-23T21:32:57.631Z,2.50
2023-02-23T21:35:24.864Z,2.30
2023-02-23T21:37:52.480Z,2.08
2023-02-23T21:40:23.518Z,2.03
2023-02-23T21:42:50.759Z,2.70
2023-02-23T21:45:18.548Z,2.60
2023-02-23T21:47:46.328Z,2.88
2023-02-23T21:50:14.414Z,2.33
2023-02-23T21:52:43.868Z,2.22
2023-02-23T21:55:21.213Z,2.35
2023-02-23T21:57:48.842Z,2.45
2023-02-23T22:00:21.714Z,2.38
2023-02-23T22:02:49.523Z,1.90
2023-02-23T22:05:16.845Z,2.25
2023-02-23T22:07:54.696Z,1.75
2023-02-23T22:10:22.739Z,1.80
2023-02-23T22:12:56.306Z,2.42
2023-02-23T22:15:27.193Z,1.92
2023-02-23T22:17:54.234Z,1.63
2023-02-23T22:20:21.250Z,2.90
2023-02-23T22:22:50.549Z,2.13
2023-02-23T22:25:17.872Z,2.38
2023-02-23T22:27:44.839Z,2.20
2023-02-23T22:30:12.317Z,2.50
2023-02-23T22:32:39.284Z,1.90
2023-02-23T22:35:07.234Z,2.53
2023-02-23T22:37:33.921Z,2.58
2023-02-23T22:40:11.573Z,2.33
2023-02-23T22:42:38.240Z,2.03
2023-02-23T22:45:06.197Z,1.65
2023-02-23T22:47:36.089Z,1.73
2023-02-23T22:50:03.048Z,1.80
2023-02-23T22:52:30.024Z,1.65
2023-02-23T22:54:56.761Z,1.70
2023-02-23T22:57:23.527Z,1.98
2023-02-23T23:00:01.019Z,1.73
2023-02-23T23:02:32.116Z,2.03
2023-02-23T23:04:59.558Z,1.60
2023-02-23T23:07:26.133Z,1.75
2023-02-23T23:09:52.792Z,1.77
2023-02-23T23:12:19.286Z,2.00
2023-02-23T23:14:47.509Z,2.33
2023-02-23T23:17:14.586Z,2.20
2023-02-23T23:19:41.197Z,2.17
2023-02-23T23:22:13.857Z,1.92
2023-02-23T23:24:46.040Z,1.90
2023-02-23T23:27:14.755Z,3.30
2023-02-23T23:29:45.713Z,3.55
2023-02-23T23:32:17.425Z,5.03
2023-02-23T23:34:45.282Z,5.00
2023-02-23T23:37:11.875Z,2.60
2023-02-23T23:39:38.445Z,2.60
2023-02-23T23:42:05.764Z,2.60
2023-02-23T23:44:33.877Z,2.60
2023-02-23T23:47:05.368Z,2.47
2023-02-23T23:49:37.843Z,1.77
2023-02-23T23:52:05.219Z,1.92
2023-02-23T23:54:33.380Z,2.97
2023-02-23T23:57:03.665Z,2.00
2023-02-23T23:59:30.338Z,2.35
